메인 페이지
METAR-TAF:

METAR-TAF

공항 :

Ozark, 앨라배마, 미국

위도: 31-17N, 경도: 085-43W, 고도: 91m

현재 날씨관측

예보는 15분 전, 00:56시(UTC)에 발표되었습니다.
4kt
온도 23°C
습도 94%
기압 1017 hPa
시정: 16.1km
맑음

METAR: KOZR 150056Z AUTO 18004KT 10SM CLR 23/22 A3002 RMK AO2 DZE01 SLP165 P0000 T02290220 $

시각: 20:11 (01:11 UTC)

예보

예보는 1 시간 11분 전, 00:00시(UTC)에 발표되었습니다.
예보 대상 시간: 15일 00시부터 16일 06시까지 (UTC)
서남서6kt
시정 10km 이상
고도 1000ft 상공 구름 조금
고도 10000ft 상공 구름 보통
전환 중
15일 01시부터 15일 02시까지 (UTC)
남서6kt
시정 10km 이상
고도 3000ft 상공 구름 보통
고도 4000ft 상공 구름 많음
전환 중
15일 17시부터 15일 18시까지 (UTC)
남남서6kt
시정: 8000m
고도 2400ft 상공 구름 보통
약한소나기
일시적
15일 18시부터 15일 22시까지 (UTC)
남서10kt, 순간 최대 풍속 20kt
시정: 4800m
고도 2000ft 상공 구름 많음, 적란운.
뇌우, 약한비
전환 중
15일 23시부터 15일 24시까지 (UTC)
6kt
시정 10km 이상
고도 1500ft 상공 구름 보통
고도 3000ft 상공 구름 많음

TAF: KOZR 150000Z 1500/1606 24006KT 9999 FEW010 SCT100 QNH2995INS BECMG 1501/1502 22006KT 9999 SCT030 BKN040 QNH2991INS BECMG 1517/1518 20006KT 8000 -SHRA SCT024 QNH3002INS TEMPO 1518/1522 22010G20KT 4800 -TSRA BKN020CB BECMG 1523/1524 18006KT 9999 NSW SCT015 BKN030 QNH3003INS TX34/1520Z TN22/1511Z

4,000개 이상의 공항 관측 자료 및 예보 (METAR 및 TAF 보고).

지도상에서 검색 가능한 기상관측소가 노란 점과 빨간 점으로 표시되어 있습니다.

기상관측소 명을 보려면 표시 위로 마우스를 이동하세요.

날씨 관측과 예보를 보려면 클릭하세요.

지도 변경 : 확대하려면 엑스 표시가 있는 녹색 버튼, 축소하려면 빼기 표시가 있는 녹색 버튼, 다음 페이지의 지도를 보려면 녹색 화살표를 클릭하세요.


METAR-TAF: